createdAt,value
2022-10-17T00:01:12.116Z,11.28
2022-10-17T00:03:40.733Z,10.99
2022-10-17T00:06:15.084Z,11.26
2022-10-17T00:08:44.712Z,11.31
2022-10-17T00:11:23.429Z,11.32
2022-10-17T00:13:55.252Z,11.32
2022-10-17T00:16:33.985Z,11.26
2022-10-17T00:19:02.025Z,11.26
2022-10-17T00:21:30.020Z,11.14
2022-10-17T00:23:59.423Z,11.21
2022-10-17T00:26:29.694Z,11.15
2022-10-17T00:28:58.421Z,11.08
2022-10-17T00:31:26.407Z,11.10
2022-10-17T00:33:54.912Z,11.06
2022-10-17T00:36:26.294Z,11.03
2022-10-17T00:38:56.999Z,10.79
2022-10-17T00:41:30.220Z,11.06
2022-10-17T00:44:02.622Z,10.80
2022-10-17T00:46:34.222Z,11.01
2022-10-17T00:49:12.938Z,11.04
2022-10-17T00:51:49.582Z,11.08
2022-10-17T00:54:23.300Z,11.04
2022-10-17T00:56:52.443Z,10.96
2022-10-17T00:59:22.121Z,10.40
2022-10-17T01:02:14.960Z,10.92
2022-10-17T01:04:46.790Z,10.88
2022-10-17T01:07:15.151Z,10.88
2022-10-17T01:09:45.885Z,10.75
2022-10-17T01:12:36.300Z,10.83
2022-10-17T01:15:17.431Z,10.79
2022-10-17T01:18:29.322Z,10.53
2022-10-17T01:21:15.154Z,10.74
2022-10-17T01:24:27.999Z,10.74
2022-10-17T01:27:36.150Z,10.76
2022-10-17T01:30:09.916Z,10.76
2022-10-17T01:33:03.806Z,10.46
2022-10-17T01:35:45.143Z,10.58
2022-10-17T01:38:44.425Z,10.62
2022-10-17T01:41:33.953Z,10.55
2022-10-17T01:44:20.308Z,10.33
2022-10-17T01:46:54.384Z,10.33
2022-10-17T01:49:27.923Z,10.21
2022-10-17T01:52:12.678Z,10.14
2022-10-17T01:54:50.359Z,10.03
2022-10-17T01:57:33.634Z,9.93
2022-10-17T02:00:06.540Z,9.85
2022-10-17T02:02:44.121Z,9.76
2022-10-17T02:05:12.506Z,9.57
2022-10-17T02:07:42.581Z,9.86
2022-10-17T02:10:26.627Z,9.58
2022-10-17T02:13:20.232Z,9.83
2022-10-17T02:16:20.087Z,9.86
2022-10-17T02:19:11.973Z,9.87
2022-10-17T02:21:56.071Z,9.86
2022-10-17T02:24:59.651Z,9.82
2022-10-17T02:27:48.660Z,9.74
2022-10-17T02:30:53.266Z,9.62
2022-10-17T02:33:37.188Z,9.71
2022-10-17T02:36:22.161Z,9.61
2022-10-17T02:38:52.763Z,9.68
2022-10-17T02:41:22.370Z,9.52
2022-10-17T02:43:55.632Z,9.72
2022-10-17T02:46:28.902Z,9.74
2022-10-17T02:49:22.043Z,9.58
2022-10-17T02:52:06.710Z,9.65
2022-10-17T02:54:48.704Z,9.70
2022-10-17T02:57:25.625Z,9.67
2022-10-17T02:59:55.984Z,9.68
2022-10-17T03:02:25.228Z,9.66
2022-10-17T03:04:53.738Z,9.48
2022-10-17T03:07:21.724Z,9.68
2022-10-17T03:09:49.692Z,9.40
2022-10-17T03:12:17.655Z,9.40
2022-10-17T03:14:45.884Z,9.61
2022-10-17T03:17:13.906Z,9.46
2022-10-17T03:19:42.060Z,9.57
2022-10-17T03:22:10.346Z,9.66
2022-10-17T03:24:39.792Z,9.71
2022-10-17T03:27:08.067Z,9.63
2022-10-17T03:29:38.349Z,9.75
2022-10-17T03:32:08.219Z,9.74
2022-10-17T03:34:37.907Z,9.45
2022-10-17T03:37:05.940Z,9.75
2022-10-17T03:39:36.096Z,9.44
2022-10-17T03:42:04.521Z,9.49
2022-10-17T03:44:32.954Z,9.65
2022-10-17T03:47:00.953Z,9.19
2022-10-17T03:49:28.953Z,9.64
2022-10-17T03:51:57.050Z,9.35
2022-10-17T03:54:26.027Z,9.61
2022-10-17T03:56:54.239Z,9.66
2022-10-17T03:59:22.445Z,9.69
2022-10-17T04:02:00.017Z,9.64
2022-10-17T04:04:29.239Z,9.65
2022-10-17T04:06:57.336Z,8.86
2022-10-17T04:09:25.731Z,9.59
2022-10-17T04:12:02.448Z,9.63
2022-10-17T04:14:32.508Z,9.64
2022-10-17T04:17:00.666Z,9.32
2022-10-17T04:19:30.004Z,9.68
2022-10-17T04:21:58.226Z,9.68
2022-10-17T04:24:29.024Z,9.42
2022-10-17T04:27:20.184Z,9.59
2022-10-17T04:29:48.627Z,9.55
2022-10-17T04:32:24.707Z,9.54
2022-10-17T04:35:15.105Z,9.55
2022-10-17T04:37:47.902Z,9.26
2022-10-17T04:40:21.057Z,9.49
2022-10-17T04:42:49.999Z,9.38
2022-10-17T04:45:21.558Z,9.41
2022-10-17T04:48:10.090Z,9.27
2022-10-17T04:50:38.080Z,9.38
2022-10-17T04:53:27.876Z,9.09
2022-10-17T04:55:56.375Z,9.36
2022-10-17T04:58:24.919Z,8.84
2022-10-17T05:00:53.476Z,9.02
2022-10-17T05:03:24.360Z,9.27
2022-10-17T05:05:52.501Z,9.27
2022-10-17T05:08:20.752Z,9.30
2022-10-17T05:10:48.699Z,8.76
2022-10-17T05:13:16.569Z,9.26
2022-10-17T05:15:44.692Z,9.25
2022-10-17T05:18:13.783Z,9.41
2022-10-17T05:20:43.820Z,9.53
2022-10-17T05:23:12.206Z,9.65
2022-10-17T05:25:44.411Z,9.65
2022-10-17T05:28:12.716Z,9.85
2022-10-17T05:30:43.050Z,9.75
2022-10-17T05:33:11.312Z,9.93
2022-10-17T05:35:39.512Z,9.95
2022-10-17T05:38:07.723Z,10.08
2022-10-17T05:40:41.755Z,9.81
2022-10-17T05:43:09.910Z,9.92
2022-10-17T05:45:41.728Z,10.25
2022-10-17T05:48:14.764Z,10.34
2022-10-17T05:50:42.703Z,10.36
2022-10-17T05:53:17.093Z,10.51
2022-10-17T05:56:00.427Z,10.55
2022-10-17T06:01:43.617Z,10.92
2022-10-17T06:04:12.310Z,11.05
2022-10-17T06:06:41.103Z,11.46
2022-10-17T06:09:10.661Z,11.46
2022-10-17T06:11:42.795Z,11.95
2022-10-17T06:14:11.681Z,12.15
2022-10-17T06:16:41.341Z,12.07
2022-10-17T06:19:11.795Z,12.33
2022-10-17T06:21:40.030Z,12.38
2022-10-17T06:24:13.821Z,12.33
2022-10-17T06:26:43.371Z,12.60
2022-10-17T06:29:14.701Z,13.03
2022-10-17T06:31:52.067Z,13.32
2022-10-17T06:34:22.584Z,13.27
2022-10-17T06:36:50.732Z,13.60
2022-10-17T06:39:20.304Z,13.95
2022-10-17T06:41:59.138Z,14.27
2022-10-17T06:44:44.507Z,14.34
2022-10-17T06:47:38.939Z,14.71
2022-10-17T06:50:21.298Z,14.63
2022-10-17T06:53:00.092Z,14.83
2022-10-17T06:55:46.521Z,14.87
2022-10-17T06:58:30.752Z,14.98
2022-10-17T07:01:13.974Z,15.28
2022-10-17T07:03:44.039Z,15.27
2022-10-17T07:06:13.388Z,15.30
2022-10-17T07:08:44.919Z,15.35
2022-10-17T07:11:19.235Z,15.57
2022-10-17T07:13:49.243Z,15.61
2022-10-17T07:16:17.561Z,15.47
2022-10-17T07:18:52.611Z,15.95
2022-10-17T07:21:21.577Z,16.17
2022-10-17T07:23:49.871Z,16.41
2022-10-17T07:26:19.731Z,16.58
2022-10-17T07:28:53.660Z,16.59
2022-10-17T07:31:31.637Z,16.53
2022-10-17T07:34:04.614Z,16.54
2022-10-17T07:36:32.799Z,16.75
2022-10-17T07:39:03.614Z,17.02
2022-10-17T07:41:33.001Z,17.13
2022-10-17T07:44:02.643Z,17.36
2022-10-17T07:46:35.983Z,17.42
2022-10-17T07:49:04.096Z,16.84
2022-10-17T07:51:32.023Z,17.58
2022-10-17T07:54:00.178Z,17.53
2022-10-17T07:56:29.852Z,17.32
2022-10-17T07:58:58.698Z,17.70
2022-10-17T08:01:28.654Z,17.57
2022-10-17T08:03:56.606Z,17.76
2022-10-17T08:06:24.474Z,17.97
2022-10-17T08:08:52.627Z,18.16
2022-10-17T08:11:21.758Z,18.37
2022-10-17T08:13:49.725Z,18.51
2022-10-17T08:16:17.767Z,17.92
2022-10-17T08:18:45.929Z,18.29
2022-10-17T08:21:13.925Z,17.97
2022-10-17T08:23:42.122Z,18.07
2022-10-17T08:26:15.698Z,18.05
2022-10-17T08:28:44.428Z,18.12
2022-10-17T08:31:19.627Z,18.31
2022-10-17T08:33:49.745Z,18.02
2022-10-17T08:36:20.216Z,18.21
2022-10-17T08:38:52.595Z,18.11
2022-10-17T08:41:35.803Z,18.11
2022-10-17T08:44:38.082Z,18.03
2022-10-17T08:47:16.369Z,18.49
2022-10-17T08:49:51.491Z,18.37
2022-10-17T08:53:12.065Z,18.79
2022-10-17T08:55:52.009Z,18.69
2022-10-17T08:58:34.838Z,19.17
2022-10-17T09:01:36.460Z,19.27
2022-10-17T09:04:38.178Z,19.40
2022-10-17T09:07:42.997Z,19.65
2022-10-17T09:10:58.843Z,19.52
2022-10-17T09:13:54.750Z,19.52
2022-10-17T09:16:37.402Z,19.78
2022-10-17T09:19:21.457Z,19.83
2022-10-17T09:22:06.572Z,19.80
2022-10-17T09:24:48.132Z,19.90
2022-10-17T09:27:48.955Z,19.64
2022-10-17T09:30:45.063Z,20.10
2022-10-17T09:33:42.261Z,19.91
2022-10-17T09:36:22.249Z,20.40
2022-10-17T09:38:59.184Z,20.20
2022-10-17T09:41:50.281Z,20.51
2022-10-17T09:44:30.982Z,20.60
2022-10-17T09:47:24.089Z,20.59
2022-10-17T09:49:52.207Z,20.54
2022-10-17T09:52:36.974Z,20.82
2022-10-17T09:55:18.022Z,20.96
2022-10-17T09:58:03.221Z,20.72
2022-10-17T10:00:37.064Z,21.04
2022-10-17T10:03:26.109Z,21.18
2022-10-17T10:06:21.916Z,21.23
2022-10-17T10:08:55.194Z,21.41
2022-10-17T10:11:44.131Z,21.27
2022-10-17T10:14:20.987Z,20.94
2022-10-17T10:16:50.447Z,21.02
2022-10-17T10:19:29.355Z,21.53
2022-10-17T10:22:28.050Z,21.74
2022-10-17T10:25:11.298Z,21.51
2022-10-17T10:27:42.123Z,21.48
2022-10-17T10:30:30.417Z,21.52
2022-10-17T10:33:00.971Z,21.98
2022-10-17T10:35:38.934Z,22.17
2022-10-17T10:38:18.053Z,22.24
2022-10-17T10:40:51.340Z,22.40
2022-10-17T10:43:41.464Z,22.35
2022-10-17T10:46:31.483Z,22.43
2022-10-17T10:49:03.399Z,22.75
2022-10-17T10:51:49.125Z,22.62
2022-10-17T10:54:26.711Z,22.75
2022-10-17T10:56:59.598Z,22.84
2022-10-17T10:59:56.783Z,22.96
2022-10-17T11:03:18.743Z,23.06
2022-10-17T11:05:56.167Z,23.05
2022-10-17T11:08:35.614Z,23.09
2022-10-17T11:11:24.915Z,23.28
2022-10-17T11:14:42.548Z,22.81
2022-10-17T11:17:23.656Z,22.69
2022-10-17T11:20:34.420Z,22.94
2022-10-17T11:23:21.780Z,22.60
2022-10-17T11:25:54.594Z,22.63
2022-10-17T11:28:24.986Z,22.78
2022-10-17T11:31:27.094Z,22.80
2022-10-17T11:34:01.676Z,22.63
2022-10-17T11:36:38.174Z,22.54
2022-10-17T11:39:10.686Z,22.43
2022-10-17T11:41:53.370Z,22.57
2022-10-17T11:44:40.626Z,22.64
2022-10-17T11:47:27.649Z,22.90
2022-10-17T11:53:08.400Z,23.37
2022-10-17T11:55:40.798Z,23.28
2022-10-17T12:01:36.626Z,23.68
2022-10-17T12:04:17.107Z,24.00
2022-10-17T12:07:19.778Z,23.93
2022-10-17T12:10:08.102Z,24.02
2022-10-17T12:12:38.349Z,23.82
2022-10-17T12:15:23.647Z,23.70
2022-10-17T12:18:03.120Z,23.98
2022-10-17T12:20:37.283Z,23.82
2022-10-17T12:23:11.476Z,23.79
2022-10-17T12:26:04.820Z,24.03
2022-10-17T12:28:46.894Z,24.03
2022-10-17T12:31:33.552Z,24.14
2022-10-17T12:34:08.441Z,24.34
2022-10-17T12:36:38.218Z,24.01
2022-10-17T12:39:11.732Z,24.43
2022-10-17T12:41:40.170Z,24.47
2022-10-17T12:44:15.152Z,24.36
2022-10-17T12:47:11.060Z,24.32
2022-10-17T12:49:53.096Z,24.08
2022-10-17T12:52:34.155Z,24.14
2022-10-17T12:55:11.945Z,23.73
2022-10-17T12:57:49.552Z,24.23
2022-10-17T13:01:11.698Z,24.59
2022-10-17T13:03:44.841Z,24.62
2022-10-17T13:06:25.106Z,24.28
2022-10-17T13:09:05.598Z,24.32
2022-10-17T13:11:36.612Z,24.31
2022-10-17T13:14:14.751Z,24.38
2022-10-17T13:17:06.127Z,24.09
2022-10-17T13:19:46.222Z,23.86
2022-10-17T13:22:23.313Z,24.02
2022-10-17T13:24:53.772Z,23.83
2022-10-17T13:27:39.568Z,23.94
2022-10-17T13:30:31.110Z,23.97
2022-10-17T13:33:03.159Z,23.66
2022-10-17T13:38:32.802Z,23.52
2022-10-17T13:41:30.047Z,23.20
2022-10-17T13:43:52.339Z,23.11
2022-10-17T13:46:39.486Z,23.18
2022-10-17T13:49:40.652Z,23.18
2022-10-17T13:52:22.340Z,23.03
2022-10-17T13:54:53.961Z,22.76
2022-10-17T13:57:26.298Z,22.74
2022-10-17T14:00:00.154Z,22.51
2022-10-17T14:02:31.553Z,22.77
2022-10-17T14:05:20.983Z,22.92
2022-10-17T14:08:13.347Z,22.91
2022-10-17T14:10:44.131Z,23.00
2022-10-17T14:13:25.745Z,22.90
2022-10-17T14:15:55.545Z,22.80
2022-10-17T14:18:37.159Z,22.61
2022-10-17T14:24:28.950Z,22.24
2022-10-17T14:26:59.919Z,22.33
2022-10-17T14:29:51.306Z,22.38
2022-10-17T14:32:20.485Z,22.22
2022-10-17T14:35:05.620Z,22.31
2022-10-17T14:37:49.058Z,21.78
2022-10-17T14:40:23.858Z,21.75
2022-10-17T14:42:59.425Z,21.89
2022-10-17T14:45:38.818Z,21.79
2022-10-17T14:48:17.892Z,21.75
2022-10-17T14:51:10.931Z,21.53
2022-10-17T14:53:40.199Z,21.47
2022-10-17T14:56:35.981Z,21.11
2022-10-17T14:59:07.580Z,21.15
2022-10-17T15:01:39.507Z,21.11
2022-10-17T15:04:10.986Z,21.06
2022-10-17T15:06:41.041Z,20.88
2022-10-17T15:09:11.673Z,20.70
2022-10-17T15:11:40.051Z,20.52
2022-10-17T15:14:08.437Z,20.49
2022-10-17T15:16:37.332Z,20.10
2022-10-17T15:19:05.419Z,20.16
2022-10-17T15:21:40.495Z,19.70
2022-10-17T15:24:11.388Z,19.95
2022-10-17T15:26:39.593Z,19.88
2022-10-17T15:29:07.687Z,19.73
2022-10-17T15:31:36.123Z,19.31
2022-10-17T15:34:04.041Z,19.36
2022-10-17T15:36:40.830Z,19.36
2022-10-17T15:39:11.113Z,19.08
2022-10-17T15:41:39.194Z,19.15
2022-10-17T15:44:07.538Z,18.72
2022-10-17T15:46:36.623Z,18.75
2022-10-17T15:49:17.959Z,18.88
2022-10-17T15:51:49.332Z,18.71
2022-10-17T15:54:18.708Z,18.50
2022-10-17T15:56:55.377Z,18.50
2022-10-17T15:59:31.031Z,18.37
2022-10-17T16:01:59.390Z,18.23
2022-10-17T16:04:29.299Z,18.15
2022-10-17T16:06:57.214Z,18.05
2022-10-17T16:09:25.320Z,17.97
2022-10-17T16:11:53.363Z,17.63
2022-10-17T16:14:21.311Z,17.71
2022-10-17T16:16:49.302Z,17.63
2022-10-17T16:19:17.391Z,17.55
2022-10-17T16:21:45.597Z,17.48
2022-10-17T16:24:13.991Z,17.41
2022-10-17T16:26:42.721Z,17.12
2022-10-17T16:29:10.752Z,17.21
2022-10-17T16:31:45.031Z,17.13
2022-10-17T16:34:16.027Z,16.93
2022-10-17T16:36:44.087Z,16.87
2022-10-17T16:39:12.322Z,16.77
2022-10-17T16:41:40.553Z,16.69
2022-10-17T16:44:13.596Z,16.35
2022-10-17T16:46:42.004Z,16.48
2022-10-17T16:49:10.907Z,16.40
2022-10-17T16:51:39.273Z,16.18
2022-10-17T16:54:07.322Z,16.06
2022-10-17T16:56:38.433Z,16.18
2022-10-17T16:59:06.635Z,16.18
2022-10-17T17:01:34.795Z,15.97
2022-10-17T17:04:04.736Z,15.84
2022-10-17T17:06:32.978Z,15.74
2022-10-17T17:09:01.216Z,16.00
2022-10-17T17:11:29.424Z,15.92
2022-10-17T17:13:59.477Z,15.88
2022-10-17T17:16:30.109Z,15.84
2022-10-17T17:19:18.662Z,15.62
2022-10-17T17:21:52.769Z,15.49
2022-10-17T17:24:21.884Z,15.36
2022-10-17T17:26:55.781Z,15.21
2022-10-17T17:29:28.203Z,15.06
2022-10-17T17:31:56.244Z,14.98
2022-10-17T17:34:24.384Z,14.86
2022-10-17T17:36:55.454Z,14.67
2022-10-17T17:39:27.151Z,14.71
2022-10-17T17:41:55.819Z,14.66
2022-10-17T17:44:24.421Z,14.68
2022-10-17T17:46:52.506Z,14.62
2022-10-17T17:49:22.044Z,14.29
2022-10-17T17:51:50.143Z,14.27
2022-10-17T17:54:18.133Z,14.43
2022-10-17T17:56:46.224Z,14.77
2022-10-17T17:59:14.894Z,14.56
2022-10-17T18:01:44.240Z,14.30
2022-10-17T18:04:12.636Z,14.09
2022-10-17T18:06:44.271Z,14.72
2022-10-17T18:09:12.612Z,14.65
2022-10-17T18:11:40.952Z,14.64
2022-10-17T18:14:14.066Z,14.65
2022-10-17T18:16:42.728Z,14.57
2022-10-17T18:19:29.248Z,14.57
2022-10-17T18:21:57.383Z,14.60
2022-10-17T18:24:30.247Z,14.63
2022-10-17T18:27:01.291Z,14.63
2022-10-17T18:29:31.538Z,14.62
2022-10-17T18:32:01.285Z,14.57
2022-10-17T18:34:30.098Z,14.37
2022-10-17T18:37:00.411Z,14.46
2022-10-17T18:39:29.634Z,14.44
2022-10-17T18:41:58.178Z,14.20
2022-10-17T18:44:27.144Z,14.31
2022-10-17T18:46:59.867Z,14.46
2022-10-17T18:49:31.268Z,14.19
2022-10-17T18:52:00.075Z,14.43
2022-10-17T18:54:29.516Z,14.51
2022-10-17T18:56:57.723Z,14.25
2022-10-17T18:59:26.254Z,14.39
2022-10-17T19:01:57.504Z,14.19
2022-10-17T19:04:27.030Z,14.05
2022-10-17T19:06:55.310Z,13.96
2022-10-17T19:09:23.436Z,14.21
2022-10-17T19:11:51.960Z,14.15
2022-10-17T19:14:20.425Z,13.42
2022-10-17T19:16:51.166Z,14.11
2022-10-17T19:19:21.230Z,14.11
2022-10-17T19:21:49.732Z,13.81
2022-10-17T19:24:25.363Z,14.05
2022-10-17T19:26:57.925Z,13.94
2022-10-17T19:29:28.514Z,13.84
2022-10-17T19:31:56.868Z,13.90
2022-10-17T19:34:25.262Z,13.70
2022-10-17T19:36:54.253Z,13.82
2022-10-17T19:39:38.409Z,13.81
2022-10-17T19:42:09.109Z,13.57
2022-10-17T19:44:46.092Z,13.75
2022-10-17T19:47:17.960Z,13.66
2022-10-17T19:49:49.904Z,13.65
2022-10-17T19:52:18.499Z,13.57
2022-10-17T19:54:47.028Z,13.61
2022-10-17T19:57:15.634Z,13.55
2022-10-17T19:59:43.897Z,13.56
2022-10-17T20:02:14.956Z,13.56
2022-10-17T20:04:54.395Z,13.61
2022-10-17T20:07:31.336Z,13.52
2022-10-17T20:09:59.417Z,13.52
2022-10-17T20:12:27.605Z,13.47
2022-10-17T20:14:55.777Z,13.59
2022-10-17T20:17:23.970Z,13.55
2022-10-17T20:19:52.357Z,13.51
2022-10-17T20:22:20.599Z,13.33
2022-10-17T20:24:48.658Z,13.31
2022-10-17T20:27:16.716Z,13.26
2022-10-17T20:29:45.048Z,12.92
2022-10-17T20:32:12.997Z,13.20
2022-10-17T20:34:41.967Z,13.11
2022-10-17T20:37:10.097Z,13.12
2022-10-17T20:39:38.340Z,12.88
2022-10-17T20:42:06.411Z,13.15
2022-10-17T20:44:34.828Z,12.84
2022-10-17T20:47:04.559Z,13.14
2022-10-17T20:49:34.582Z,12.79
2022-10-17T20:52:02.996Z,13.11
2022-10-17T20:54:31.626Z,13.07
2022-10-17T20:57:02.603Z,13.05
2022-10-17T20:59:37.508Z,13.04
2022-10-17T21:02:18.632Z,13.08
2022-10-17T21:04:48.575Z,12.77
2022-10-17T21:07:16.619Z,12.68
2022-10-17T21:10:12.158Z,12.99
2022-10-17T21:12:54.056Z,12.96
2022-10-17T21:15:23.070Z,12.88
2022-10-17T21:17:51.062Z,12.82
2022-10-17T21:20:19.067Z,12.80
2022-10-17T21:22:47.067Z,12.54
2022-10-17T21:25:15.949Z,12.79
2022-10-17T21:27:43.848Z,12.77
2022-10-17T21:30:12.133Z,12.48
2022-10-17T21:32:55.290Z,12.65
2022-10-17T21:35:23.783Z,12.36
2022-10-17T21:37:51.888Z,12.48
2022-10-17T21:40:19.932Z,12.75
2022-10-17T21:42:47.904Z,12.73
2022-10-17T21:45:25.102Z,12.45
2022-10-17T21:48:18.083Z,12.75
2022-10-17T21:50:41.793Z,12.34
2022-10-17T21:53:10.027Z,12.79
2022-10-17T21:55:38.419Z,12.76
2022-10-17T21:58:06.484Z,12.65
2022-10-17T22:00:34.618Z,12.69
2022-10-17T22:03:02.816Z,12.72
2022-10-17T22:05:31.632Z,12.55
2022-10-17T22:07:59.654Z,12.81
2022-10-17T22:10:27.875Z,12.72
2022-10-17T22:12:58.370Z,12.80
2022-10-17T22:15:26.565Z,12.32
2022-10-17T22:17:54.497Z,12.27
2022-10-17T22:20:22.454Z,12.78
2022-10-17T22:22:50.572Z,12.82
2022-10-17T22:25:18.474Z,12.48
2022-10-17T22:27:47.502Z,12.78
2022-10-17T22:30:15.983Z,12.71
2022-10-17T22:32:44.272Z,12.63
2022-10-17T22:35:12.564Z,12.62
2022-10-17T22:37:40.619Z,12.67
2022-10-17T22:40:09.271Z,12.27
2022-10-17T22:42:37.304Z,12.48
2022-10-17T22:45:05.875Z,12.19
2022-10-17T22:47:33.873Z,12.49
2022-10-17T22:50:01.806Z,12.46
2022-10-17T22:52:30.305Z,12.44
2022-10-17T22:54:58.689Z,12.41
2022-10-17T22:57:26.585Z,12.37
2022-10-17T22:59:54.527Z,12.36
2022-10-17T23:02:22.559Z,12.30
2022-10-17T23:04:50.430Z,12.31
2022-10-17T23:07:18.607Z,11.96
2022-10-17T23:09:46.573Z,12.11
2022-10-17T23:12:17.542Z,12.23
2022-10-17T23:14:45.714Z,11.94
2022-10-17T23:17:14.592Z,12.11
2022-10-17T23:19:42.559Z,12.10
2022-10-17T23:22:10.673Z,11.83
2022-10-17T23:24:38.559Z,12.12
2022-10-17T23:27:06.473Z,12.09
2022-10-17T23:29:35.251Z,12.05
2022-10-17T23:32:03.604Z,12.02
2022-10-17T23:34:31.650Z,12.04
2022-10-17T23:36:59.675Z,11.98
2022-10-17T23:39:27.508Z,11.98
2022-10-17T23:41:55.341Z,11.98
2022-10-17T23:44:23.788Z,11.90
2022-10-17T23:46:51.737Z,11.98
2022-10-17T23:49:19.543Z,11.94
2022-10-17T23:51:47.826Z,11.98
2022-10-17T23:54:15.788Z,11.67
2022-10-17T23:56:43.666Z,11.97
2022-10-17T23:59:11.727Z,11.89
